createdAt,value
2022-09-11T00:01:32.477Z,21.95
2022-09-11T00:03:59.805Z,22.35
2022-09-11T00:06:30.062Z,23.05
2022-09-11T00:09:00.814Z,23.20
2022-09-11T00:11:30.438Z,21.33
2022-09-11T00:13:57.746Z,22.83
2022-09-11T00:16:33.946Z,23.13
2022-09-11T00:19:04.351Z,23.85
2022-09-11T00:21:31.339Z,23.67
2022-09-11T00:23:58.526Z,23.90
2022-09-11T00:26:26.782Z,24.13
2022-09-11T00:28:55.071Z,25.55
2022-09-11T00:31:27.968Z,23.85
2022-09-11T00:33:55.541Z,23.58
2022-09-11T00:36:35.032Z,23.95
2022-09-11T00:39:04.294Z,25.15
2022-09-11T00:41:36.328Z,24.42
2022-09-11T00:44:28.385Z,23.92
2022-09-11T00:46:59.246Z,24.48
2022-09-11T00:49:27.052Z,24.42
2022-09-11T00:52:00.941Z,23.67
2022-09-11T00:54:35.679Z,23.75
2022-09-11T00:57:06.446Z,22.92
2022-09-11T00:59:35.082Z,23.65
2022-09-11T01:02:02.499Z,23.23
2022-09-11T01:04:30.443Z,24.20
2022-09-11T01:07:00.149Z,23.42
2022-09-11T01:09:31.223Z,24.27
2022-09-11T01:12:04.204Z,24.77
2022-09-11T01:14:53.445Z,25.00
2022-09-11T01:17:52.790Z,24.35
2022-09-11T01:20:36.465Z,25.08
2022-09-11T01:23:12.343Z,25.80
2022-09-11T01:25:57.678Z,25.95
2022-09-11T01:29:05.759Z,25.27
2022-09-11T01:31:46.963Z,24.10
2022-09-11T01:34:25.883Z,24.63
2022-09-11T01:37:03.428Z,24.67
2022-09-11T01:39:40.446Z,25.13
2022-09-11T01:42:14.774Z,27.10
2022-09-11T01:44:53.109Z,28.27
2022-09-11T01:47:22.145Z,29.50
2022-09-11T01:50:10.698Z,29.45
2022-09-11T01:52:55.793Z,28.08
2022-09-11T01:55:39.998Z,30.27
2022-09-11T01:58:10.902Z,30.17
2022-09-11T02:00:47.256Z,30.65
2022-09-11T02:03:19.938Z,31.48
2022-09-11T02:08:36.574Z,29.52
2022-09-11T02:11:09.082Z,30.17
2022-09-11T02:14:10.474Z,31.48
2022-09-11T02:16:38.003Z,30.42
2022-09-11T02:19:24.313Z,29.75
2022-09-11T02:21:51.297Z,30.52
2022-09-11T02:24:19.863Z,29.05
2022-09-11T02:27:00.293Z,29.98
2022-09-11T02:29:31.160Z,29.42
2022-09-11T02:32:00.936Z,31.05
2022-09-11T02:34:33.522Z,29.35
2022-09-11T02:37:18.798Z,31.25
2022-09-11T02:39:59.161Z,30.00
2022-09-11T02:42:35.965Z,30.08
2022-09-11T02:45:24.578Z,29.27
2022-09-11T02:47:52.478Z,27.98
2022-09-11T02:50:33.918Z,30.02
2022-09-11T02:53:42.518Z,30.45
2022-09-11T02:56:32.279Z,29.70
2022-09-11T02:59:04.426Z,29.85
2022-09-11T03:01:53.184Z,30.88
2022-09-11T03:04:24.678Z,29.20
2022-09-11T03:06:53.659Z,28.20
2022-09-11T03:09:21.341Z,30.90
2022-09-11T03:11:52.248Z,31.03
2022-09-11T03:14:20.013Z,31.30
2022-09-11T03:16:47.094Z,33.95
2022-09-11T03:19:14.551Z,32.80
2022-09-11T03:21:41.843Z,33.17
2022-09-11T03:24:09.647Z,33.92
2022-09-11T03:26:38.599Z,36.55
2022-09-11T03:29:08.501Z,36.28
2022-09-11T03:31:39.115Z,37.80
2022-09-11T03:34:07.385Z,36.50
2022-09-11T03:36:35.251Z,37.00
2022-09-11T03:39:02.523Z,36.22
2022-09-11T03:41:30.585Z,33.42
2022-09-11T03:43:57.461Z,31.73
2022-09-11T03:46:24.534Z,34.22
2022-09-11T03:48:52.551Z,34.00
2022-09-11T03:51:21.253Z,35.45
2022-09-11T03:53:49.102Z,33.78
2022-09-11T03:56:16.372Z,34.00
2022-09-11T03:58:48.253Z,36.25
2022-09-11T04:01:19.451Z,34.08
2022-09-11T04:03:48.136Z,35.05
2022-09-11T04:06:23.741Z,35.83
2022-09-11T04:08:50.567Z,35.03
2022-09-11T04:11:19.282Z,35.50
2022-09-11T04:13:46.505Z,35.22
2022-09-11T04:16:19.161Z,35.30
2022-09-11T04:18:53.380Z,33.03
2022-09-11T04:21:21.325Z,30.65
2022-09-11T04:23:56.412Z,34.60
2022-09-11T04:26:26.893Z,34.33
2022-09-11T04:29:00.320Z,31.73
2022-09-11T04:31:27.735Z,34.40
2022-09-11T04:33:58.037Z,32.10
2022-09-11T04:36:30.348Z,34.80
2022-09-11T04:39:00.101Z,36.95
2022-09-11T04:41:28.355Z,37.30
2022-09-11T04:44:04.804Z,36.75
2022-09-11T04:46:34.367Z,36.63
2022-09-11T04:49:04.836Z,38.03
2022-09-11T04:51:34.896Z,35.97
2022-09-11T04:54:02.509Z,37.80
2022-09-11T04:56:38.028Z,37.95
2022-09-11T04:59:15.878Z,35.97
2022-09-11T05:01:48.181Z,36.97
2022-09-11T05:04:21.816Z,35.38
2022-09-11T05:06:49.987Z,34.70
2022-09-11T05:09:19.453Z,33.85
2022-09-11T05:11:47.975Z,36.00
2022-09-11T05:14:15.851Z,36.40
2022-09-11T05:16:45.495Z,32.30
2022-09-11T05:19:14.352Z,35.92
2022-09-11T05:21:43.862Z,35.80
2022-09-11T05:24:11.163Z,39.60
2022-09-11T05:26:38.288Z,41.55
2022-09-11T05:29:21.074Z,43.30
2022-09-11T05:31:56.277Z,40.17
2022-09-11T05:34:24.356Z,44.25
2022-09-11T05:36:52.291Z,42.53
2022-09-11T05:39:19.617Z,42.50
2022-09-11T05:41:51.589Z,43.45
2022-09-11T05:44:19.277Z,40.08
2022-09-11T05:46:46.207Z,40.13
2022-09-11T05:49:13.334Z,46.72
2022-09-11T05:51:41.708Z,47.42
2022-09-11T05:54:08.685Z,45.58
2022-09-11T05:56:36.771Z,45.25
2022-09-11T05:59:14.306Z,44.17
2022-09-11T06:01:44.810Z,46.33
2022-09-11T06:04:19.273Z,46.58
2022-09-11T06:06:48.685Z,46.97
2022-09-11T06:09:16.724Z,45.95
2022-09-11T06:12:12.593Z,47.03
2022-09-11T06:14:43.909Z,45.20
2022-09-11T06:17:12.329Z,42.97
2022-09-11T06:19:39.585Z,43.25
2022-09-11T06:22:07.027Z,43.40
2022-09-11T06:24:39.395Z,42.80
2022-09-11T06:27:08.564Z,42.90
2022-09-11T06:29:39.495Z,39.72
2022-09-11T06:32:06.852Z,38.88
2022-09-11T06:34:38.345Z,40.40
2022-09-11T06:37:08.974Z,41.78
2022-09-11T06:39:35.837Z,42.42
2022-09-11T06:42:03.666Z,40.83
2022-09-11T06:44:35.138Z,41.37
2022-09-11T06:47:04.039Z,39.70
2022-09-11T06:49:32.348Z,39.50
2022-09-11T06:52:17.889Z,38.83
2022-09-11T06:54:54.646Z,40.20
2022-09-11T06:57:22.825Z,38.90
2022-09-11T06:59:52.829Z,40.17
2022-09-11T07:02:20.937Z,40.95
2022-09-11T07:04:49.175Z,38.42
2022-09-11T07:07:18.230Z,39.35
2022-09-11T07:09:45.210Z,38.05
2022-09-11T07:12:12.756Z,37.78
2022-09-11T07:14:41.340Z,37.95
2022-09-11T07:17:15.891Z,38.97
2022-09-11T07:19:44.784Z,38.67
2022-09-11T07:22:15.063Z,39.55
2022-09-11T07:24:42.968Z,39.83
2022-09-11T07:27:13.846Z,38.70
2022-09-11T07:29:42.157Z,39.60
2022-09-11T07:32:10.203Z,39.75
2022-09-11T07:34:39.237Z,39.15
2022-09-11T07:37:10.487Z,38.72
2022-09-11T07:39:38.995Z,38.15
2022-09-11T07:42:12.171Z,37.83
2022-09-11T07:44:43.334Z,36.65
2022-09-11T07:47:10.543Z,35.47
2022-09-11T07:49:47.158Z,37.20
2022-09-11T07:52:20.597Z,37.40
2022-09-11T07:54:54.255Z,37.58
2022-09-11T07:57:27.364Z,36.40
2022-09-11T07:59:55.423Z,34.50
2022-09-11T08:02:23.543Z,34.00
2022-09-11T08:04:51.644Z,37.03
2022-09-11T08:07:19.074Z,35.88
2022-09-11T08:09:46.939Z,37.50
2022-09-11T08:12:13.885Z,37.47
2022-09-11T08:14:42.070Z,36.65
2022-09-11T08:17:16.320Z,36.08
2022-09-11T08:19:43.423Z,36.15
2022-09-11T08:22:12.014Z,34.58
2022-09-11T08:24:43.464Z,36.80
2022-09-11T08:27:14.727Z,34.15
2022-09-11T08:29:43.794Z,34.55
2022-09-11T08:32:11.312Z,33.78
2022-09-11T08:34:40.940Z,33.55
2022-09-11T08:37:09.466Z,34.70
2022-09-11T08:39:37.684Z,34.85
2022-09-11T08:42:16.452Z,36.72
2022-09-11T08:44:55.122Z,34.05
2022-09-11T08:47:30.750Z,33.95
2022-09-11T08:50:16.088Z,33.17
2022-09-11T08:52:44.622Z,35.13
2022-09-11T08:55:17.187Z,34.05
2022-09-11T08:57:57.367Z,36.92
2022-09-11T09:00:53.123Z,34.95
2022-09-11T09:04:03.576Z,33.42
2022-09-11T09:06:40.499Z,34.38
2022-09-11T09:09:35.090Z,35.55
2022-09-11T09:12:32.377Z,35.85
2022-09-11T09:15:18.435Z,35.75
2022-09-11T09:17:51.145Z,35.90
2022-09-11T09:20:23.117Z,34.85
2022-09-11T09:22:51.162Z,35.78
2022-09-11T09:25:25.387Z,34.67
2022-09-11T09:28:03.680Z,34.58
2022-09-11T09:30:40.746Z,35.22
2022-09-11T09:33:31.177Z,33.83
2022-09-11T09:36:17.961Z,33.95
2022-09-11T09:38:46.501Z,34.45
2022-09-11T09:41:16.711Z,33.80
2022-09-11T09:43:55.846Z,33.33
2022-09-11T09:46:41.626Z,31.77
2022-09-11T09:49:15.043Z,31.02
2022-09-11T09:51:42.159Z,33.45
2022-09-11T09:54:16.700Z,31.92
2022-09-11T09:56:53.162Z,28.17
2022-09-11T09:59:30.209Z,28.85
2022-09-11T10:01:58.198Z,27.88
2022-09-11T10:04:27.775Z,25.45
2022-09-11T10:07:09.871Z,27.70
2022-09-11T10:09:46.787Z,28.30
2022-09-11T10:12:24.365Z,26.00
2022-09-11T10:15:01.323Z,22.98
2022-09-11T10:17:33.279Z,28.55
2022-09-11T10:20:36.165Z,30.02
2022-09-11T10:25:50.302Z,26.45
2022-09-11T10:28:28.166Z,26.80
2022-09-11T10:30:59.375Z,25.30
2022-09-11T10:33:39.641Z,23.35
2022-09-11T10:36:09.070Z,19.23
2022-09-11T10:38:44.976Z,19.70
2022-09-11T10:41:19.196Z,20.88
2022-09-11T10:43:48.854Z,20.83
2022-09-11T10:46:18.606Z,19.60
2022-09-11T10:49:22.403Z,18.20
2022-09-11T10:52:05.317Z,15.27
2022-09-11T10:55:07.492Z,14.15
2022-09-11T10:57:53.524Z,14.33
2022-09-11T11:00:27.939Z,15.48
2022-09-11T11:02:58.192Z,12.93
2022-09-11T11:06:04.155Z,13.95
2022-09-11T11:08:57.333Z,13.50
2022-09-11T11:11:56.099Z,12.65
2022-09-11T11:14:28.786Z,12.40
2022-09-11T11:17:23.866Z,11.65
2022-09-11T11:19:53.594Z,10.13
2022-09-11T11:22:53.561Z,12.05
2022-09-11T11:25:50.993Z,10.85
2022-09-11T11:28:33.996Z,11.20
2022-09-11T11:31:25.844Z,10.30
2022-09-11T11:34:55.033Z,9.43
2022-09-11T11:37:42.921Z,8.40
2022-09-11T11:40:32.109Z,8.00
2022-09-11T11:43:07.642Z,7.65
2022-09-11T11:45:44.901Z,8.65
2022-09-11T11:48:23.288Z,7.88
2022-09-11T11:50:55.447Z,7.70
2022-09-11T11:53:39.132Z,7.75
2022-09-11T11:56:40.981Z,7.40
2022-09-11T11:59:38.064Z,7.07
2022-09-11T12:02:19.185Z,6.28
2022-09-11T12:05:04.986Z,7.05
2022-09-11T12:07:37.239Z,7.28
2022-09-11T12:12:58.077Z,7.25
2022-09-11T12:15:34.238Z,7.03
2022-09-11T12:18:11.397Z,7.63
2022-09-11T12:20:43.178Z,7.30
2022-09-11T12:23:35.316Z,6.68
2022-09-11T12:26:25.641Z,6.78
2022-09-11T12:29:20.467Z,6.55
2022-09-11T12:32:13.260Z,5.88
2022-09-11T12:34:46.230Z,5.70
2022-09-11T12:37:22.227Z,6.00
2022-09-11T12:39:59.690Z,5.07
2022-09-11T12:42:26.673Z,6.10
2022-09-11T12:44:54.105Z,4.80
2022-09-11T12:47:28.390Z,5.97
2022-09-11T12:50:05.917Z,8.30
2022-09-11T12:52:51.123Z,5.88
2022-09-11T12:55:36.714Z,5.82
2022-09-11T12:58:20.974Z,6.40
2022-09-11T13:00:54.332Z,6.80
2022-09-11T13:03:24.754Z,6.90
2022-09-11T13:05:59.981Z,6.60
2022-09-11T13:08:32.327Z,6.75
2022-09-11T13:11:36.726Z,8.48
2022-09-11T13:14:29.030Z,7.32
2022-09-11T13:16:57.669Z,6.72
2022-09-11T13:19:35.851Z,6.03
2022-09-11T13:22:27.696Z,5.93
2022-09-11T13:25:18.174Z,6.15
2022-09-11T13:27:50.912Z,5.10
2022-09-11T13:30:21.707Z,5.30
2022-09-11T13:33:02.961Z,5.30
2022-09-11T13:35:30.289Z,5.07
2022-09-11T13:38:05.098Z,4.30
2022-09-11T13:40:49.831Z,4.47
2022-09-11T13:43:22.425Z,4.30
2022-09-11T13:45:49.337Z,3.78
2022-09-11T13:48:23.780Z,3.63
2022-09-11T13:50:53.804Z,3.55
2022-09-11T13:53:22.476Z,3.85
2022-09-11T13:55:50.594Z,4.00
2022-09-11T13:58:30.995Z,4.38
2022-09-11T14:01:13.751Z,4.05
2022-09-11T14:03:47.759Z,4.05
2022-09-11T14:06:18.794Z,3.80
2022-09-11T14:08:51.805Z,3.25
2022-09-11T14:11:25.674Z,3.15
2022-09-11T14:13:58.605Z,3.35
2022-09-11T14:16:29.098Z,2.90
2022-09-11T14:19:07.840Z,3.10
2022-09-11T14:21:38.214Z,3.58
2022-09-11T14:24:25.153Z,3.85
2022-09-11T14:26:52.665Z,3.25
2022-09-11T14:29:36.355Z,3.10
2022-09-11T14:32:42.138Z,2.97
2022-09-11T14:35:14.883Z,3.63
2022-09-11T14:37:45.778Z,2.80
2022-09-11T14:40:19.475Z,2.80
2022-09-11T14:42:47.028Z,3.80
2022-09-11T14:45:25.878Z,2.95
2022-09-11T14:47:53.570Z,3.60
2022-09-11T14:50:21.154Z,3.25
2022-09-11T14:52:48.321Z,2.95
2022-09-11T14:55:18.537Z,3.17
2022-09-11T14:57:49.102Z,3.22
2022-09-11T15:00:17.940Z,2.88
2022-09-11T15:02:47.399Z,2.90
2022-09-11T15:05:16.926Z,2.78
2022-09-11T15:07:47.051Z,2.95
2022-09-11T15:10:15.851Z,2.60
2022-09-11T15:12:42.781Z,2.60
2022-09-11T15:15:11.258Z,2.45
2022-09-11T15:17:39.241Z,2.60
2022-09-11T15:20:09.317Z,2.53
2022-09-11T15:22:38.182Z,2.53
2022-09-11T15:25:05.701Z,2.50
2022-09-11T15:27:32.913Z,2.22
2022-09-11T15:30:00.557Z,2.40
2022-09-11T15:32:27.837Z,2.40
2022-09-11T15:34:55.129Z,1.70
2022-09-11T15:37:22.929Z,1.70
2022-09-11T15:39:52.951Z,2.15
2022-09-11T15:42:21.227Z,1.88
2022-09-11T15:44:48.047Z,1.70
2022-09-11T15:47:15.061Z,1.80
2022-09-11T15:49:44.474Z,1.75
2022-09-11T15:52:12.511Z,1.80
2022-09-11T15:54:39.500Z,1.75
2022-09-11T15:57:07.558Z,1.70
2022-09-11T15:59:34.570Z,1.75
2022-09-11T16:02:01.440Z,1.73
2022-09-11T16:04:31.304Z,1.85
2022-09-11T16:06:59.757Z,1.80
2022-09-11T16:09:29.754Z,2.10
2022-09-11T16:11:57.830Z,1.50
2022-09-11T16:14:27.842Z,1.88
2022-09-11T16:16:56.061Z,3.08
2022-09-11T16:19:28.522Z,2.22
2022-09-11T16:21:57.461Z,1.70
2022-09-11T16:24:26.488Z,1.95
2022-09-11T16:26:55.802Z,2.08
2022-09-11T16:29:24.716Z,1.95
2022-09-11T16:31:52.924Z,1.77
2022-09-11T16:34:20.819Z,2.10
2022-09-11T16:36:47.759Z,2.08
2022-09-11T16:39:17.391Z,2.17
2022-09-11T16:41:44.521Z,2.45
2022-09-11T16:44:14.616Z,2.40
2022-09-11T16:46:42.373Z,2.03
2022-09-11T16:49:15.853Z,2.13
2022-09-11T16:51:44.485Z,2.17
2022-09-11T16:54:11.930Z,2.28
2022-09-11T16:56:43.916Z,1.80
2022-09-11T16:59:13.754Z,2.40
2022-09-11T17:01:41.760Z,2.30
2022-09-11T17:04:08.740Z,2.13
2022-09-11T17:06:35.736Z,2.58
2022-09-11T17:09:04.226Z,2.20
2022-09-11T17:11:32.788Z,2.25
2022-09-11T17:14:03.622Z,2.10
2022-09-11T17:16:34.202Z,2.53
2022-09-11T17:19:02.361Z,2.58
2022-09-11T17:21:35.772Z,2.28
2022-09-11T17:24:04.957Z,2.72
2022-09-11T17:26:32.459Z,2.85
2022-09-11T17:29:03.695Z,2.70
2022-09-11T17:31:31.798Z,2.60
2022-09-11T17:33:58.718Z,2.28
2022-09-11T17:36:25.594Z,2.80
2022-09-11T17:38:55.105Z,3.25
2022-09-11T17:41:22.186Z,3.50
2022-09-11T17:43:49.554Z,3.28
2022-09-11T17:46:19.925Z,3.80
2022-09-11T17:48:48.515Z,3.75
2022-09-11T17:51:24.048Z,4.30
2022-09-11T17:53:56.577Z,4.30
2022-09-11T17:56:28.101Z,4.38
2022-09-11T17:58:57.299Z,4.07
2022-09-11T18:01:25.731Z,4.25
2022-09-11T18:03:56.692Z,4.13
2022-09-11T18:06:36.403Z,4.75
2022-09-11T18:09:16.266Z,4.30
2022-09-11T18:11:45.184Z,4.82
2022-09-11T18:14:14.514Z,5.22
2022-09-11T18:16:45.255Z,4.75
2022-09-11T18:19:13.178Z,5.28
2022-09-11T18:21:40.456Z,4.55
2022-09-11T18:24:09.777Z,4.90
2022-09-11T18:26:40.040Z,5.50
2022-09-11T18:29:10.640Z,5.22
2022-09-11T18:31:41.431Z,6.93
2022-09-11T18:34:11.578Z,6.05
2022-09-11T18:36:38.739Z,5.60
2022-09-11T18:39:05.729Z,6.30
2022-09-11T18:41:37.666Z,6.10
2022-09-11T18:44:08.909Z,6.72
2022-09-11T18:46:37.462Z,6.82
2022-09-11T18:49:04.877Z,7.68
2022-09-11T18:51:33.261Z,7.18
2022-09-11T18:54:00.413Z,7.18
2022-09-11T18:56:29.471Z,7.68
2022-09-11T18:58:56.334Z,7.25
2022-09-11T19:01:26.298Z,7.50
2022-09-11T19:03:53.775Z,7.55
2022-09-11T19:06:27.600Z,7.93
2022-09-11T19:08:55.978Z,7.15
2022-09-11T19:11:26.128Z,7.78
2022-09-11T19:13:56.716Z,7.72
2022-09-11T19:16:23.618Z,7.93
2022-09-11T19:18:50.471Z,7.82
2022-09-11T19:21:20.857Z,8.30
2022-09-11T19:23:50.304Z,9.27
2022-09-11T19:26:21.921Z,8.05
2022-09-11T19:28:49.925Z,9.00
2022-09-11T19:31:21.372Z,8.10
2022-09-11T19:33:48.514Z,7.60
2022-09-11T19:36:17.744Z,8.02
2022-09-11T19:38:46.761Z,7.97
2022-09-11T19:41:16.556Z,7.97
2022-09-11T19:43:44.547Z,7.45
2022-09-11T19:46:14.215Z,8.88
2022-09-11T19:48:44.333Z,9.07
2022-09-11T19:51:23.174Z,9.23
2022-09-11T19:53:51.346Z,10.38
2022-09-11T19:56:19.442Z,9.68
2022-09-11T19:58:46.242Z,9.32
2022-09-11T20:01:19.030Z,10.23
2022-09-11T20:03:46.333Z,10.18
2022-09-11T20:06:14.913Z,9.50
2022-09-11T20:08:43.978Z,9.57
2022-09-11T20:11:14.198Z,8.93
2022-09-11T20:13:42.799Z,9.13
2022-09-11T20:16:12.399Z,8.90
2022-09-11T20:18:39.244Z,9.65
2022-09-11T20:21:09.762Z,9.23
2022-09-11T20:23:37.980Z,9.48
2022-09-11T20:26:25.992Z,9.40
2022-09-11T20:29:02.587Z,9.32
2022-09-11T20:31:32.262Z,10.15
2022-09-11T20:34:00.596Z,8.90
2022-09-11T20:36:29.887Z,9.38
2022-09-11T20:39:00.749Z,8.73
2022-09-11T20:41:30.355Z,8.60
2022-09-11T20:44:02.147Z,8.75
2022-09-11T20:46:28.973Z,8.57
2022-09-11T20:48:55.941Z,8.30
2022-09-11T20:51:23.714Z,7.47
2022-09-11T20:53:51.848Z,7.40
2022-09-11T20:56:23.496Z,7.72
2022-09-11T20:58:52.205Z,7.60
2022-09-11T21:01:23.893Z,7.43
2022-09-11T21:03:56.698Z,6.95
2022-09-11T21:06:26.633Z,7.05
2022-09-11T21:08:55.951Z,6.28
2022-09-11T21:11:23.917Z,7.22
2022-09-11T21:13:51.371Z,6.75
2022-09-11T21:16:20.015Z,6.40
2022-09-11T21:18:50.924Z,6.63
2022-09-11T21:21:18.776Z,6.45
2022-09-11T21:23:45.923Z,7.05
2022-09-11T21:26:15.523Z,7.13
2022-09-11T21:28:45.146Z,6.83
2022-09-11T21:31:12.659Z,7.35
2022-09-11T21:33:40.613Z,7.35
2022-09-11T21:36:08.631Z,7.53
2022-09-11T21:38:37.055Z,7.93
2022-09-11T21:41:07.045Z,7.45
2022-09-11T21:43:35.409Z,7.38
2022-09-11T21:46:03.475Z,8.55
2022-09-11T21:48:35.630Z,7.22
2022-09-11T21:53:39.075Z,7.53
2022-09-11T21:56:07.587Z,8.40
2022-09-11T21:58:34.424Z,8.60
2022-09-11T22:01:08.295Z,8.50
2022-09-11T22:03:37.380Z,8.13
2022-09-11T22:06:08.653Z,7.88
2022-09-11T22:08:35.753Z,7.78
2022-09-11T22:11:04.543Z,8.43
2022-09-11T22:13:32.403Z,7.95
2022-09-11T22:16:02.888Z,10.10
2022-09-11T22:18:32.208Z,9.15
2022-09-11T22:21:02.747Z,8.63
2022-09-11T22:23:30.518Z,8.00
2022-09-11T22:26:04.252Z,7.97
2022-09-11T22:28:31.220Z,8.90
2022-09-11T22:30:59.027Z,8.85
2022-09-11T22:33:26.081Z,8.48
2022-09-11T22:35:52.880Z,8.30
2022-09-11T22:38:19.731Z,8.13
2022-09-11T22:40:53.545Z,8.35
2022-09-11T22:43:20.533Z,8.10
2022-09-11T22:45:51.977Z,8.52
2022-09-11T22:48:19.214Z,9.60
2022-09-11T22:50:47.600Z,9.38
2022-09-11T22:53:14.858Z,9.18
2022-09-11T22:55:47.426Z,9.10
2022-09-11T22:58:14.256Z,9.13
2022-09-11T23:00:42.094Z,8.15
2022-09-11T23:03:09.260Z,8.50
2022-09-11T23:05:54.768Z,8.95
2022-09-11T23:08:21.801Z,8.65
2022-09-11T23:10:48.557Z,8.80
2022-09-11T23:13:15.417Z,8.75
2022-09-11T23:15:43.279Z,9.02
2022-09-11T23:18:11.245Z,8.43
2022-09-11T23:20:38.124Z,8.38
2022-09-11T23:23:05.962Z,8.50
2022-09-11T23:25:36.187Z,9.13
2022-09-11T23:28:03.156Z,8.52
2022-09-11T23:30:31.093Z,8.93
2022-09-11T23:32:57.889Z,9.02
2022-09-11T23:35:26.829Z,9.05
2022-09-11T23:37:54.887Z,9.20
2022-09-11T23:40:21.697Z,9.55
2022-09-11T23:42:48.733Z,9.38
2022-09-11T23:45:16.641Z,9.20
2022-09-11T23:47:43.572Z,9.00
2022-09-11T23:50:12.416Z,9.60
2022-09-11T23:52:39.716Z,8.40
2022-09-11T23:55:07.291Z,9.38
2022-09-11T23:57:34.451Z,9.32
